sensor_id;sensor_type;location;lat;lon;timestamp;pressure;altitude;pressure_sealevel;temperature;humidity
46722;BME280;32455;43.430;23.136;2023-05-22T00:01:56;98072.75;;;13.48;100.00
46722;BME280;32455;43.430;23.136;2023-05-22T00:04:41;98077.63;;;13.63;100.00
46722;BME280;32455;43.430;23.136;2023-05-22T00:07:26;98061.09;;;12.86;100.00
46722;BME280;32455;43.430;23.136;2023-05-22T00:10:11;98073.66;;;13.09;100.00
46722;BME280;32455;43.430;23.136;2023-05-22T00:12:56;98078.97;;;13.32;100.00
46722;BME280;32455;43.430;23.136;2023-05-22T00:15:41;98071.84;;;13.14;100.00
46722;BME280;32455;43.430;23.136;2023-05-22T00:18:27;98075.13;;;13.28;100.00
46722;BME280;32455;43.430;23.136;2023-05-22T00:21:12;98070.91;;;12.92;100.00
46722;BME280;32455;43.430;23.136;2023-05-22T00:23:58;98059.97;;;12.98;100.00
46722;BME280;32455;43.430;23.136;2023-05-22T00:26:43;98060.78;;;12.99;100.00
46722;BME280;32455;43.430;23.136;2023-05-22T00:29:28;98063.63;;;12.64;100.00
46722;BME280;32455;43.430;23.136;2023-05-22T00:32:13;98065.97;;;12.89;100.00
46722;BME280;32455;43.430;23.136;2023-05-22T00:34:59;98063.88;;;13.19;100.00
46722;BME280;32455;43.430;23.136;2023-05-22T00:37:44;98060.50;;;13.12;100.00
46722;BME280;32455;43.430;23.136;2023-05-22T00:40:30;98065.25;;;13.22;100.00
46722;BME280;32455;43.430;23.136;2023-05-22T00:43:15;98060.13;;;12.80;100.00
46722;BME280;32455;43.430;23.136;2023-05-22T00:46:01;98064.19;;;13.06;100.00
46722;BME280;32455;43.430;23.136;2023-05-22T00:48:46;98058.16;;;13.16;100.00
46722;BME280;32455;43.430;23.136;2023-05-22T00:51:32;98049.41;;;12.97;100.00
46722;BME280;32455;43.430;23.136;2023-05-22T00:54:18;98052.38;;;12.95;100.00
46722;BME280;32455;43.430;23.136;2023-05-22T00:57:04;98047.94;;;12.89;100.00
46722;BME280;32455;43.430;23.136;2023-05-22T00:59:49;98048.03;;;12.94;100.00
46722;BME280;32455;43.430;23.136;2023-05-22T01:02:35;98046.53;;;12.87;100.00
46722;BME280;32455;43.430;23.136;2023-05-22T01:05:21;98041.03;;;12.82;100.00
46722;BME280;32455;43.430;23.136;2023-05-22T01:08:07;98036.22;;;12.84;100.00
46722;BME280;32455;43.430;23.136;2023-05-22T01:11:08;98040.09;;;12.76;100.00
46722;BME280;32455;43.430;23.136;2023-05-22T01:17:27;98048.81;;;12.66;100.00
46722;BME280;32455;43.430;23.136;2023-05-22T01:20:33;98047.81;;;12.56;100.00
46722;BME280;32455;43.430;23.136;2023-05-22T01:32:15;98033.97;;;12.52;100.00
46722;BME280;32455;43.430;23.136;2023-05-22T01:35:04;98041.69;;;12.60;100.00
46722;BME280;32455;43.430;23.136;2023-05-22T01:37:53;98025.09;;;12.40;100.00
46722;BME280;32455;43.430;23.136;2023-05-22T01:40:39;98030.41;;;12.35;100.00
46722;BME280;32455;43.430;23.136;2023-05-22T01:43:24;98027.00;;;12.16;100.00
46722;BME280;32455;43.430;23.136;2023-05-22T01:46:09;98020.59;;;12.17;100.00
46722;BME280;32455;43.430;23.136;2023-05-22T01:48:55;98029.69;;;12.27;100.00
46722;BME280;32455;43.430;23.136;2023-05-22T01:54:54;98034.63;;;12.19;100.00
46722;BME280;32455;43.430;23.136;2023-05-22T02:00:34;98036.75;;;11.93;100.00
46722;BME280;32455;43.430;23.136;2023-05-22T02:03:24;98030.19;;;11.89;100.00
46722;BME280;32455;43.430;23.136;2023-05-22T02:06:12;98018.25;;;11.85;100.00
46722;BME280;32455;43.430;23.136;2023-05-22T02:09:00;98022.00;;;11.84;100.00
46722;BME280;32455;43.430;23.136;2023-05-22T02:11:47;98026.31;;;11.73;100.00
46722;BME280;32455;43.430;23.136;2023-05-22T02:14:34;98026.34;;;11.97;100.00
46722;BME280;32455;43.430;23.136;2023-05-22T02:17:20;98021.31;;;12.00;100.00
46722;BME280;32455;43.430;23.136;2023-05-22T02:20:15;98025.50;;;11.85;100.00
46722;BME280;32455;43.430;23.136;2023-05-22T02:23:01;98022.81;;;12.08;100.00
46722;BME280;32455;43.430;23.136;2023-05-22T02:25:46;98009.59;;;11.83;100.00
46722;BME280;32455;43.430;23.136;2023-05-22T02:28:32;98034.16;;;11.75;100.00
46722;BME280;32455;43.430;23.136;2023-05-22T02:31:18;98044.38;;;11.96;100.00
46722;BME280;32455;43.430;23.136;2023-05-22T02:34:03;98037.56;;;11.94;100.00
46722;BME280;32455;43.430;23.136;2023-05-22T02:36:49;98033.19;;;11.81;100.00
46722;BME280;32455;43.430;23.136;2023-05-22T02:39:35;98033.44;;;11.79;100.00
46722;BME280;32455;43.430;23.136;2023-05-22T02:42:20;98031.72;;;11.85;100.00
46722;BME280;32455;43.430;23.136;2023-05-22T02:45:06;98036.28;;;11.96;100.00
46722;BME280;32455;43.430;23.136;2023-05-22T02:47:52;98031.81;;;11.90;100.00
46722;BME280;32455;43.430;23.136;2023-05-22T02:50:37;98022.47;;;11.93;100.00
46722;BME280;32455;43.430;23.136;2023-05-22T02:53:22;98016.03;;;11.94;100.00
46722;BME280;32455;43.430;23.136;2023-05-22T02:56:07;98020.25;;;12.01;100.00
46722;BME280;32455;43.430;23.136;2023-05-22T02:58:55;98027.50;;;12.01;100.00
46722;BME280;32455;43.430;23.136;2023-05-22T03:01:40;98019.56;;;11.83;100.00
46722;BME280;32455;43.430;23.136;2023-05-22T03:04:28;98018.25;;;11.97;100.00
46722;BME280;32455;43.430;23.136;2023-05-22T03:07:12;98021.50;;;12.11;100.00
46722;BME280;32455;43.430;23.136;2023-05-22T03:09:57;98021.97;;;12.19;100.00
46722;BME280;32455;43.430;23.136;2023-05-22T03:12:43;98006.78;;;12.01;100.00
46722;BME280;32455;43.430;23.136;2023-05-22T03:15:28;98023.38;;;12.22;100.00
46722;BME280;32455;43.430;23.136;2023-05-22T03:18:13;98010.88;;;12.04;100.00
46722;BME280;32455;43.430;23.136;2023-05-22T03:20:58;98016.38;;;12.21;100.00
46722;BME280;32455;43.430;23.136;2023-05-22T03:23:43;98011.19;;;12.31;100.00
46722;BME280;32455;43.430;23.136;2023-05-22T03:26:29;98020.28;;;12.42;100.00
46722;BME280;32455;43.430;23.136;2023-05-22T03:29:15;98027.44;;;12.36;100.00
46722;BME280;32455;43.430;23.136;2023-05-22T03:32:00;98014.22;;;12.46;100.00
46722;BME280;32455;43.430;23.136;2023-05-22T03:34:47;98010.44;;;12.47;100.00
46722;BME280;32455;43.430;23.136;2023-05-22T03:37:32;98009.38;;;12.48;100.00
46722;BME280;32455;43.430;23.136;2023-05-22T03:40:17;97984.44;;;12.41;100.00
46722;BME280;32455;43.430;23.136;2023-05-22T03:43:02;97999.94;;;12.63;100.00
46722;BME280;32455;43.430;23.136;2023-05-22T03:45:47;98010.31;;;12.83;100.00
46722;BME280;32455;43.430;23.136;2023-05-22T03:48:33;98011.34;;;12.93;100.00
46722;BME280;32455;43.430;23.136;2023-05-22T03:51:18;98010.19;;;12.89;100.00
46722;BME280;32455;43.430;23.136;2023-05-22T03:54:03;98012.59;;;13.02;100.00
46722;BME280;32455;43.430;23.136;2023-05-22T03:56:48;98020.22;;;13.22;100.00
46722;BME280;32455;43.430;23.136;2023-05-22T03:59:35;98016.66;;;13.34;100.00
46722;BME280;32455;43.430;23.136;2023-05-22T04:02:20;98025.31;;;13.36;100.00
46722;BME280;32455;43.430;23.136;2023-05-22T04:05:07;98034.25;;;13.53;100.00
46722;BME280;32455;43.430;23.136;2023-05-22T04:07:53;98022.47;;;13.59;100.00
46722;BME280;32455;43.430;23.136;2023-05-22T04:10:38;98030.56;;;13.76;100.00
46722;BME280;32455;43.430;23.136;2023-05-22T04:13:24;98030.66;;;13.81;100.00
46722;BME280;32455;43.430;23.136;2023-05-22T04:16:11;98029.09;;;13.68;100.00
46722;BME280;32455;43.430;23.136;2023-05-22T04:18:56;98036.78;;;13.76;100.00
46722;BME280;32455;43.430;23.136;2023-05-22T04:21:42;98036.19;;;13.91;100.00
46722;BME280;32455;43.430;23.136;2023-05-22T04:24:27;98041.91;;;14.12;100.00
46722;BME280;32455;43.430;23.136;2023-05-22T04:27:13;98033.69;;;14.23;100.00
46722;BME280;32455;43.430;23.136;2023-05-22T04:29:58;98039.81;;;14.36;100.00
46722;BME280;32455;43.430;23.136;2023-05-22T04:32:44;98031.94;;;14.34;100.00
46722;BME280;32455;43.430;23.136;2023-05-22T04:35:29;98038.84;;;14.47;100.00
46722;BME280;32455;43.430;23.136;2023-05-22T04:38:14;98044.78;;;14.44;100.00
46722;BME280;32455;43.430;23.136;2023-05-22T04:41:00;98045.75;;;14.55;100.00
46722;BME280;32455;43.430;23.136;2023-05-22T04:43:45;98055.91;;;14.47;100.00
46722;BME280;32455;43.430;23.136;2023-05-22T04:46:32;98054.25;;;14.63;100.00
46722;BME280;32455;43.430;23.136;2023-05-22T04:49:20;98055.88;;;14.64;100.00
46722;BME280;32455;43.430;23.136;2023-05-22T04:52:06;98063.97;;;14.64;100.00
46722;BME280;32455;43.430;23.136;2023-05-22T04:54:51;98054.88;;;14.70;100.00
46722;BME280;32455;43.430;23.136;2023-05-22T04:57:38;98068.47;;;14.75;100.00
46722;BME280;32455;43.430;23.136;2023-05-22T05:00:23;98062.19;;;14.70;100.00
46722;BME280;32455;43.430;23.136;2023-05-22T05:03:10;98055.25;;;14.79;100.00
46722;BME280;32455;43.430;23.136;2023-05-22T05:05:55;98060.84;;;14.72;100.00
46722;BME280;32455;43.430;23.136;2023-05-22T05:08:41;98059.25;;;14.76;100.00
46722;BME280;32455;43.430;23.136;2023-05-22T05:11:28;98062.88;;;14.82;100.00
46722;BME280;32455;43.430;23.136;2023-05-22T05:14:14;98062.09;;;14.87;100.00
46722;BME280;32455;43.430;23.136;2023-05-22T05:16:59;98051.69;;;14.73;100.00
46722;BME280;32455;43.430;23.136;2023-05-22T05:19:46;98053.91;;;14.82;100.00
46722;BME280;32455;43.430;23.136;2023-05-22T05:22:31;98066.75;;;14.91;100.00
46722;BME280;32455;43.430;23.136;2023-05-22T05:25:16;98064.13;;;14.52;100.00
46722;BME280;32455;43.430;23.136;2023-05-22T05:28:02;98063.00;;;14.70;100.00
46722;BME280;32455;43.430;23.136;2023-05-22T05:30:47;98073.25;;;14.90;100.00
46722;BME280;32455;43.430;23.136;2023-05-22T05:33:32;98084.19;;;15.00;100.00
46722;BME280;32455;43.430;23.136;2023-05-22T05:36:18;98083.00;;;14.69;100.00
46722;BME280;32455;43.430;23.136;2023-05-22T05:39:02;98070.22;;;14.87;100.00
46722;BME280;32455;43.430;23.136;2023-05-22T05:41:48;98087.97;;;14.99;100.00
46722;BME280;32455;43.430;23.136;2023-05-22T05:44:33;98083.28;;;15.17;100.00
46722;BME280;32455;43.430;23.136;2023-05-22T05:47:18;98097.50;;;15.29;100.00
46722;BME280;32455;43.430;23.136;2023-05-22T05:50:07;98092.78;;;15.46;100.00
46722;BME280;32455;43.430;23.136;2023-05-22T05:52:54;98092.59;;;15.58;100.00
46722;BME280;32455;43.430;23.136;2023-05-22T05:55:39;98103.59;;;15.68;100.00
46722;BME280;32455;43.430;23.136;2023-05-22T05:58:25;98095.69;;;15.13;100.00
46722;BME280;32455;43.430;23.136;2023-05-22T06:01:10;98090.50;;;15.33;100.00
46722;BME280;32455;43.430;23.136;2023-05-22T06:03:56;98103.50;;;15.63;100.00
46722;BME280;32455;43.430;23.136;2023-05-22T06:06:43;98102.13;;;15.61;100.00
46722;BME280;32455;43.430;23.136;2023-05-22T06:09:28;98098.59;;;15.60;100.00
46722;BME280;32455;43.430;23.136;2023-05-22T06:12:14;98087.97;;;15.53;100.00
46722;BME280;32455;43.430;23.136;2023-05-22T06:14:59;98106.41;;;15.84;100.00
46722;BME280;32455;43.430;23.136;2023-05-22T06:17:44;98110.16;;;15.77;100.00
46722;BME280;32455;43.430;23.136;2023-05-22T06:20:30;98102.38;;;15.59;100.00
46722;BME280;32455;43.430;23.136;2023-05-22T06:23:14;98095.22;;;15.48;100.00
46722;BME280;32455;43.430;23.136;2023-05-22T06:25:59;98101.97;;;15.67;100.00
46722;BME280;32455;43.430;23.136;2023-05-22T06:28:44;98103.63;;;15.73;100.00
46722;BME280;32455;43.430;23.136;2023-05-22T06:31:29;98099.63;;;15.81;100.00
46722;BME280;32455;43.430;23.136;2023-05-22T06:34:18;98094.72;;;15.78;100.00
46722;BME280;32455;43.430;23.136;2023-05-22T06:37:06;98096.09;;;15.53;100.00
46722;BME280;32455;43.430;23.136;2023-05-22T06:39:51;98095.84;;;15.28;100.00
46722;BME280;32455;43.430;23.136;2023-05-22T06:42:36;98103.19;;;15.87;100.00
46722;BME280;32455;43.430;23.136;2023-05-22T06:45:22;98093.28;;;15.97;100.00
46722;BME280;32455;43.430;23.136;2023-05-22T06:48:07;98093.81;;;15.99;100.00
46722;BME280;32455;43.430;23.136;2023-05-22T06:50:53;98087.13;;;16.12;100.00
46722;BME280;32455;43.430;23.136;2023-05-22T06:53:39;98090.19;;;16.26;100.00
46722;BME280;32455;43.430;23.136;2023-05-22T06:56:24;98083.78;;;16.42;100.00
46722;BME280;32455;43.430;23.136;2023-05-22T06:59:09;98087.97;;;16.65;100.00
46722;BME280;32455;43.430;23.136;2023-05-22T07:01:56;98064.41;;;16.71;100.00
46722;BME280;32455;43.430;23.136;2023-05-22T07:04:41;98072.91;;;16.80;100.00
46722;BME280;32455;43.430;23.136;2023-05-22T07:07:27;98068.91;;;17.02;100.00
46722;BME280;32455;43.430;23.136;2023-05-22T07:10:12;98073.72;;;16.85;100.00
46722;BME280;32455;43.430;23.136;2023-05-22T07:12:58;98067.06;;;17.23;100.00
46722;BME280;32455;43.430;23.136;2023-05-22T07:15:44;98070.34;;;17.36;100.00
46722;BME280;32455;43.430;23.136;2023-05-22T07:18:30;98072.25;;;17.45;100.00
46722;BME280;32455;43.430;23.136;2023-05-22T07:21:15;98069.53;;;17.40;100.00
46722;BME280;32455;43.430;23.136;2023-05-22T07:24:01;98080.41;;;17.50;100.00
46722;BME280;32455;43.430;23.136;2023-05-22T07:26:51;98078.03;;;18.00;100.00
46722;BME280;32455;43.430;23.136;2023-05-22T07:29:37;98074.50;;;17.94;100.00
46722;BME280;32455;43.430;23.136;2023-05-22T07:32:22;98077.22;;;17.74;100.00
46722;BME280;32455;43.430;23.136;2023-05-22T07:35:07;98074.16;;;17.55;100.00
46722;BME280;32455;43.430;23.136;2023-05-22T07:37:54;98073.41;;;17.90;100.00
46722;BME280;32455;43.430;23.136;2023-05-22T07:40:39;98069.03;;;18.05;100.00
46722;BME280;32455;43.430;23.136;2023-05-22T07:43:25;98074.75;;;17.83;100.00
46722;BME280;32455;43.430;23.136;2023-05-22T07:46:11;98077.16;;;18.20;100.00
46722;BME280;32455;43.430;23.136;2023-05-22T07:48:56;98074.34;;;18.66;100.00
46722;BME280;32455;43.430;23.136;2023-05-22T07:51:41;98071.81;;;18.95;100.00
46722;BME280;32455;43.430;23.136;2023-05-22T07:54:27;98071.50;;;19.07;100.00
46722;BME280;32455;43.430;23.136;2023-05-22T07:57:12;98078.31;;;19.04;100.00
46722;BME280;32455;43.430;23.136;2023-05-22T07:59:57;98083.69;;;19.19;100.00
46722;BME280;32455;43.430;23.136;2023-05-22T08:02:43;98081.91;;;19.39;100.00
46722;BME280;32455;43.430;23.136;2023-05-22T08:05:27;98076.06;;;19.61;100.00
46722;BME280;32455;43.430;23.136;2023-05-22T08:08:13;98082.72;;;19.44;100.00
46722;BME280;32455;43.430;23.136;2023-05-22T08:10:59;98078.34;;;19.43;100.00
46722;BME280;32455;43.430;23.136;2023-05-22T08:13:44;98090.44;;;19.32;100.00
46722;BME280;32455;43.430;23.136;2023-05-22T08:16:30;98094.31;;;19.16;100.00
46722;BME280;32455;43.430;23.136;2023-05-22T08:19:16;98088.53;;;19.27;100.00
46722;BME280;32455;43.430;23.136;2023-05-22T08:22:01;98084.81;;;19.58;100.00
46722;BME280;32455;43.430;23.136;2023-05-22T08:24:47;98083.63;;;19.74;100.00
46722;BME280;32455;43.430;23.136;2023-05-22T08:27:32;98089.88;;;19.80;100.00
46722;BME280;32455;43.430;23.136;2023-05-22T08:30:17;98091.31;;;19.67;100.00
46722;BME280;32455;43.430;23.136;2023-05-22T08:33:02;98091.19;;;19.82;100.00
46722;BME280;32455;43.430;23.136;2023-05-22T08:35:47;98088.59;;;20.01;100.00
46722;BME280;32455;43.430;23.136;2023-05-22T08:38:33;98099.25;;;19.97;100.00
46722;BME280;32455;43.430;23.136;2023-05-22T08:41:18;98103.81;;;19.73;100.00
46722;BME280;32455;43.430;23.136;2023-05-22T08:44:03;98097.75;;;19.81;100.00
46722;BME280;32455;43.430;23.136;2023-05-22T08:46:53;98095.78;;;19.92;100.00
46722;BME280;32455;43.430;23.136;2023-05-22T08:49:41;98106.06;;;20.00;100.00
46722;BME280;32455;43.430;23.136;2023-05-22T08:52:51;98101.00;;;20.17;100.00
46722;BME280;32455;43.430;23.136;2023-05-22T08:55:41;98097.03;;;20.05;100.00
46722;BME280;32455;43.430;23.136;2023-05-22T08:58:27;98104.69;;;20.32;100.00
46722;BME280;32455;43.430;23.136;2023-05-22T09:01:13;98108.41;;;20.41;100.00
46722;BME280;32455;43.430;23.136;2023-05-22T09:04:00;98112.13;;;20.26;100.00
46722;BME280;32455;43.430;23.136;2023-05-22T09:06:49;98103.84;;;19.68;100.00
46722;BME280;32455;43.430;23.136;2023-05-22T09:09:38;98113.69;;;19.64;100.00
46722;BME280;32455;43.430;23.136;2023-05-22T09:12:24;98113.47;;;19.50;100.00
46722;BME280;32455;43.430;23.136;2023-05-22T09:15:10;98105.22;;;19.65;100.00
46722;BME280;32455;43.430;23.136;2023-05-22T09:17:55;98094.81;;;19.72;100.00
46722;BME280;32455;43.430;23.136;2023-05-22T09:20:40;98100.88;;;19.64;100.00
46722;BME280;32455;43.430;23.136;2023-05-22T09:23:26;98100.41;;;19.47;100.00
46722;BME280;32455;43.430;23.136;2023-05-22T09:26:12;98088.47;;;19.38;100.00
46722;BME280;32455;43.430;23.136;2023-05-22T09:28:59;98091.94;;;19.93;100.00
46722;BME280;32455;43.430;23.136;2023-05-22T09:31:44;98085.91;;;20.25;100.00
46722;BME280;32455;43.430;23.136;2023-05-22T09:34:30;98092.97;;;20.60;100.00
46722;BME280;32455;43.430;23.136;2023-05-22T09:37:17;98090.75;;;20.86;99.89
46722;BME280;32455;43.430;23.136;2023-05-22T09:40:06;98083.94;;;20.84;100.00
46722;BME280;32455;43.430;23.136;2023-05-22T09:42:52;98080.97;;;21.04;100.00
46722;BME280;32455;43.430;23.136;2023-05-22T09:45:38;98086.50;;;20.99;96.19
46722;BME280;32455;43.430;23.136;2023-05-22T09:48:23;98078.97;;;21.10;97.22
46722;BME280;32455;43.430;23.136;2023-05-22T09:51:09;98059.72;;;21.20;94.57
46722;BME280;32455;43.430;23.136;2023-05-22T09:54:02;98080.41;;;21.26;97.53
46722;BME280;32455;43.430;23.136;2023-05-22T09:56:48;98085.09;;;21.44;91.78
46722;BME280;32455;43.430;23.136;2023-05-22T09:59:37;98092.09;;;21.32;92.97
46722;BME280;32455;43.430;23.136;2023-05-22T10:02:25;98088.28;;;21.52;91.93
46722;BME280;32455;43.430;23.136;2023-05-22T10:05:11;98093.06;;;21.41;89.44
46722;BME280;32455;43.430;23.136;2023-05-22T10:08:09;98080.75;;;21.00;92.32
46722;BME280;32455;43.430;23.136;2023-05-22T10:10:55;98074.97;;;21.02;93.97
46722;BME280;32455;43.430;23.136;2023-05-22T10:13:43;98077.97;;;20.82;96.36
46722;BME280;32455;43.430;23.136;2023-05-22T10:16:33;98073.91;;;20.79;91.81
46722;BME280;32455;43.430;23.136;2023-05-22T10:19:22;98072.31;;;20.97;96.02
46722;BME280;32455;43.430;23.136;2023-05-22T10:22:12;98068.63;;;21.07;98.21
46722;BME280;32455;43.430;23.136;2023-05-22T10:25:05;98074.34;;;21.29;94.88
46722;BME280;32455;43.430;23.136;2023-05-22T10:27:54;98082.97;;;21.17;91.16
46722;BME280;32455;43.430;23.136;2023-05-22T10:30:47;98085.41;;;21.00;89.58
46722;BME280;32455;43.430;23.136;2023-05-22T10:33:40;98071.50;;;20.72;96.18
46722;BME280;32455;43.430;23.136;2023-05-22T10:37:02;98069.50;;;21.02;98.22
46722;BME280;32455;43.430;23.136;2023-05-22T10:40:02;98064.94;;;20.97;95.37
46722;BME280;32455;43.430;23.136;2023-05-22T10:42:48;98057.09;;;20.91;93.50
46722;BME280;32455;43.430;23.136;2023-05-22T10:45:35;98059.84;;;20.91;94.18
46722;BME280;32455;43.430;23.136;2023-05-22T10:48:20;98062.97;;;21.03;97.76
46722;BME280;32455;43.430;23.136;2023-05-22T10:51:07;98050.34;;;21.07;92.39
46722;BME280;32455;43.430;23.136;2023-05-22T10:54:01;98042.72;;;21.23;91.81
46722;BME280;32455;43.430;23.136;2023-05-22T10:56:49;98050.75;;;20.95;94.93
46722;BME280;32455;43.430;23.136;2023-05-22T10:59:34;98034.56;;;21.42;93.68
46722;BME280;32455;43.430;23.136;2023-05-22T11:02:24;98032.50;;;21.85;90.66
46722;BME280;32455;43.430;23.136;2023-05-22T11:08:10;98033.63;;;22.17;84.18
46722;BME280;32455;43.430;23.136;2023-05-22T11:10:56;98020.31;;;21.78;74.45
46722;BME280;32455;43.430;23.136;2023-05-22T11:13:50;98018.75;;;21.90;73.78
46722;BME280;32455;43.430;23.136;2023-05-22T11:16:37;98021.81;;;22.03;70.95
46722;BME280;32455;43.430;23.136;2023-05-22T11:19:23;98009.97;;;22.07;72.34
46722;BME280;32455;43.430;23.136;2023-05-22T11:22:08;98022.88;;;22.34;70.01
46722;BME280;32455;43.430;23.136;2023-05-22T11:24:54;98013.56;;;22.35;69.82
46722;BME280;32455;43.430;23.136;2023-05-22T11:27:40;98015.91;;;22.56;66.28
46722;BME280;32455;43.430;23.136;2023-05-22T11:30:26;98016.53;;;22.53;66.09
46722;BME280;32455;43.430;23.136;2023-05-22T11:33:13;98002.91;;;22.75;66.92
46722;BME280;32455;43.430;23.136;2023-05-22T11:35:58;98014.88;;;22.52;65.99
46722;BME280;32455;43.430;23.136;2023-05-22T11:38:45;97998.47;;;21.91;66.44
46722;BME280;32455;43.430;23.136;2023-05-22T11:41:34;97996.22;;;22.12;66.92
46722;BME280;32455;43.430;23.136;2023-05-22T11:44:19;98004.69;;;22.11;66.64
46722;BME280;32455;43.430;23.136;2023-05-22T11:47:05;97996.22;;;22.26;67.71
46722;BME280;32455;43.430;23.136;2023-05-22T11:49:51;97994.72;;;22.34;65.97
46722;BME280;32455;43.430;23.136;2023-05-22T11:52:39;97983.25;;;22.59;67.89
46722;BME280;32455;43.430;23.136;2023-05-22T11:55:25;97997.63;;;22.79;64.58
46722;BME280;32455;43.430;23.136;2023-05-22T11:58:09;97993.38;;;23.00;62.80
46722;BME280;32455;43.430;23.136;2023-05-22T12:01:01;97986.75;;;23.01;61.13
46722;BME280;32455;43.430;23.136;2023-05-22T12:03:46;97984.56;;;22.75;61.86
46722;BME280;32455;43.430;23.136;2023-05-22T12:06:32;97980.59;;;22.95;64.47
46722;BME280;32455;43.430;23.136;2023-05-22T12:09:17;97984.03;;;22.87;65.04
46722;BME280;32455;43.430;23.136;2023-05-22T12:12:02;97963.03;;;22.83;66.23
46722;BME280;32455;43.430;23.136;2023-05-22T12:14:48;97979.41;;;22.46;64.34
46722;BME280;32455;43.430;23.136;2023-05-22T12:17:35;97976.13;;;22.72;66.16
46722;BME280;32455;43.430;23.136;2023-05-22T12:20:28;97964.72;;;23.06;62.80
46722;BME280;32455;43.430;23.136;2023-05-22T12:23:26;97970.81;;;23.03;64.67
46722;BME280;32455;43.430;23.136;2023-05-22T12:26:12;97961.91;;;22.97;61.46
46722;BME280;32455;43.430;23.136;2023-05-22T12:28:58;97956.31;;;23.25;61.81
46722;BME280;32455;43.430;23.136;2023-05-22T12:31:44;97950.53;;;23.27;62.88
46722;BME280;32455;43.430;23.136;2023-05-22T12:34:33;97952.09;;;23.19;61.42
46722;BME280;32455;43.430;23.136;2023-05-22T12:37:19;97951.66;;;23.26;61.12
46722;BME280;32455;43.430;23.136;2023-05-22T12:40:05;97949.28;;;23.33;59.52
46722;BME280;32455;43.430;23.136;2023-05-22T12:42:51;97943.13;;;23.49;64.13
46722;BME280;32455;43.430;23.136;2023-05-22T12:45:36;97942.13;;;23.45;63.34
46722;BME280;32455;43.430;23.136;2023-05-22T12:48:24;97945.31;;;23.39;62.61
46722;BME280;32455;43.430;23.136;2023-05-22T12:51:10;97939.44;;;23.32;63.57
46722;BME280;32455;43.430;23.136;2023-05-22T12:53:56;97931.47;;;23.21;64.80
46722;BME280;32455;43.430;23.136;2023-05-22T12:56:42;97925.88;;;23.04;63.08
46722;BME280;32455;43.430;23.136;2023-05-22T12:59:27;97934.63;;;23.37;62.58
46722;BME280;32455;43.430;23.136;2023-05-22T13:02:12;97926.69;;;23.27;61.03
46722;BME280;32455;43.430;23.136;2023-05-22T13:04:57;97919.25;;;23.28;62.22
46722;BME280;32455;43.430;23.136;2023-05-22T13:07:43;97922.16;;;23.54;60.06
46722;BME280;32455;43.430;23.136;2023-05-22T13:10:28;97915.09;;;23.30;58.87
46722;BME280;32455;43.430;23.136;2023-05-22T13:13:14;97921.47;;;23.03;62.04
46722;BME280;32455;43.430;23.136;2023-05-22T13:16:00;97913.53;;;23.15;60.95
46722;BME280;32455;43.430;23.136;2023-05-22T13:18:46;97927.72;;;23.40;59.18
46722;BME280;32455;43.430;23.136;2023-05-22T13:21:32;97913.88;;;23.45;59.67
46722;BME280;32455;43.430;23.136;2023-05-22T13:24:17;97920.22;;;23.54;58.24
46722;BME280;32455;43.430;23.136;2023-05-22T13:27:02;97922.44;;;23.66;60.48
46722;BME280;32455;43.430;23.136;2023-05-22T13:29:48;97917.63;;;23.71;58.98
46722;BME280;32455;43.430;23.136;2023-05-22T13:32:33;97925.56;;;23.73;58.15
46722;BME280;32455;43.430;23.136;2023-05-22T13:35:19;97917.94;;;23.47;58.91
46722;BME280;32455;43.430;23.136;2023-05-22T13:38:04;97913.00;;;23.58;59.09
46722;BME280;32455;43.430;23.136;2023-05-22T13:40:49;97914.41;;;23.69;59.93
46722;BME280;32455;43.430;23.136;2023-05-22T13:43:36;97917.78;;;24.06;61.49
46722;BME280;32455;43.430;23.136;2023-05-22T13:46:21;97909.72;;;23.70;60.13
46722;BME280;32455;43.430;23.136;2023-05-22T13:49:06;97904.81;;;23.36;61.31
46722;BME280;32455;43.430;23.136;2023-05-22T13:51:52;97901.72;;;23.37;61.04
46722;BME280;32455;43.430;23.136;2023-05-22T13:54:37;97898.63;;;23.08;61.51
46722;BME280;32455;43.430;23.136;2023-05-22T13:57:22;97889.59;;;22.71;62.65
46722;BME280;32455;43.430;23.136;2023-05-22T14:00:07;97889.69;;;22.80;63.37
46722;BME280;32455;43.430;23.136;2023-05-22T14:02:53;97895.72;;;23.04;63.52
46722;BME280;32455;43.430;23.136;2023-05-22T14:05:39;97886.16;;;23.24;62.47
46722;BME280;32455;43.430;23.136;2023-05-22T14:08:28;97885.66;;;23.44;62.02
46722;BME280;32455;43.430;23.136;2023-05-22T14:11:13;97894.47;;;23.64;61.04
46722;BME280;32455;43.430;23.136;2023-05-22T14:13:59;97902.22;;;23.62;60.42
46722;BME280;32455;43.430;23.136;2023-05-22T14:16:45;97877.41;;;23.67;60.18
46722;BME280;32455;43.430;23.136;2023-05-22T14:19:30;97875.03;;;23.74;60.01
46722;BME280;32455;43.430;23.136;2023-05-22T14:22:15;97879.13;;;23.63;62.53
46722;BME280;32455;43.430;23.136;2023-05-22T14:25:00;97880.94;;;23.36;60.58
46722;BME280;32455;43.430;23.136;2023-05-22T14:27:46;97877.09;;;23.15;61.43
46722;BME280;32455;43.430;23.136;2023-05-22T14:30:32;97872.25;;;22.75;64.58
46722;BME280;32455;43.430;23.136;2023-05-22T14:33:17;97882.97;;;22.49;65.85
46722;BME280;32455;43.430;23.136;2023-05-22T14:36:02;97878.22;;;22.28;68.74
46722;BME280;32455;43.430;23.136;2023-05-22T14:38:47;97870.09;;;22.09;68.94
46722;BME280;32455;43.430;23.136;2023-05-22T14:41:33;97864.41;;;21.91;70.72
46722;BME280;32455;43.430;23.136;2023-05-22T14:44:19;97861.09;;;21.81;72.08